QTR677 VRMM-OTHH
Flight info
| Callsign | QTR677 |
|---|---|
| Flight time | N/A |
| Altitude | 34000 |
| Route | LELEM2A LELEM L894 KITAL P570 EMURU N563 SODEX DCT UMIBU P899 TOVOX |
| Aircraft | B77W/H-SDE1E2E3FGHIJ2J3J4J5M1RWXY/LB1D1 |
Departure
| Time | N/A |
|---|---|
| Airport | Velana International Airport (VRMM) |
Arrival
| Time | 2026-05-07 13:36 |
|---|---|
| Airport | Hamad International Airport (OTHH) |
| Time | Latitude | Longitude | Altitude | Speed | Heading |
|---|---|---|---|---|---|
| 2026-05-07 13:26 | 25.20438 | 51.88733 | 6105 ft | 293 kts | 336° |
| 2026-05-07 13:26 | 25.22283 | 51.87778 | 5746 ft | 293 kts | 336° |
| 2026-05-07 13:26 | 25.24002 | 51.86587 | 5293 ft | 293 kts | 316° |
| 2026-05-07 13:27 | 25.25094 | 51.84726 | 5016 ft | 290 kts | 290° |
| 2026-05-07 13:27 | 25.25331 | 51.82549 | 4788 ft | 286 kts | 263° |
| 2026-05-07 13:27 | 25.24677 | 51.80513 | 4563 ft | 282 kts | 236° |
| 2026-05-07 13:27 | 25.23301 | 51.79022 | 4344 ft | 276 kts | 214° |
| 2026-05-07 13:28 | 25.21683 | 51.77879 | 4144 ft | 276 kts | 212° |
| 2026-05-07 13:28 | 25.20041 | 51.76773 | 3936 ft | 276 kts | 212° |
| 2026-05-07 13:28 | 25.18285 | 51.75964 | 3702 ft | 274 kts | 188° |
| 2026-05-07 13:28 | 25.16401 | 51.76049 | 3491 ft | 271 kts | 169° |
| 2026-05-07 13:29 | 25.14541 | 51.76476 | 3283 ft | 272 kts | 167° |
| 2026-05-07 13:29 | 25.12698 | 51.76910 | 3075 ft | 268 kts | 168° |
| 2026-05-07 13:29 | 25.10909 | 51.77336 | 3015 ft | 255 kts | 168° |
| 2026-05-07 13:29 | 25.09206 | 51.77747 | 2993 ft | 246 kts | 168° |
| 2026-05-07 13:30 | 25.07516 | 51.77823 | 2972 ft | 239 kts | 195° |
| 2026-05-07 13:30 | 25.06115 | 51.77011 | 2970 ft | 222 kts | 225° |
| 2026-05-07 13:30 | 25.05050 | 51.75817 | 2986 ft | 216 kts | 228° |
| 2026-05-07 13:30 | 25.04054 | 51.74595 | 2980 ft | 213 kts | 237° |
| 2026-05-07 13:31 | 25.03570 | 51.73089 | 2977 ft | 210 kts | 268° |
| 2026-05-07 13:31 | 25.03873 | 51.71545 | 2964 ft | 206 kts | 303° |
| 2026-05-07 13:31 | 25.04919 | 51.70521 | 2962 ft | 201 kts | 339° |
| 2026-05-07 13:31 | 25.06290 | 51.70376 | 2979 ft | 201 kts | 8° |
| 2026-05-07 13:32 | 25.07684 | 51.70363 | 2984 ft | 200 kts | 347° |
| 2026-05-07 13:32 | 25.09025 | 51.69912 | 2999 ft | 201 kts | 340° |
| 2026-05-07 13:32 | 25.10314 | 51.69360 | 2962 ft | 195 kts | 339° |
| 2026-05-07 13:32 | 25.11578 | 51.68798 | 2722 ft | 194 kts | 338° |
| 2026-05-07 13:33 | 25.12819 | 51.68247 | 2487 ft | 190 kts | 338° |
| 2026-05-07 13:33 | 25.14031 | 51.67713 | 2260 ft | 185 kts | 339° |
| 2026-05-07 13:33 | 25.15214 | 51.67194 | 2037 ft | 180 kts | 339° |
| 2026-05-07 13:33 | 25.16375 | 51.66685 | 1816 ft | 178 kts | 339° |
| 2026-05-07 13:34 | 25.17510 | 51.66188 | 1596 ft | 171 kts | 339° |
| 2026-05-07 13:34 | 25.19689 | 51.65234 | 1182 ft | 162 kts | 339° |
| 2026-05-07 13:34 | 25.20727 | 51.64779 | 983 ft | 157 kts | 339° |
| 2026-05-07 13:35 | 25.21744 | 51.64334 | 785 ft | 156 kts | 339° |
| 2026-05-07 13:35 | 25.22759 | 51.63889 | 584 ft | 156 kts | 340° |
| 2026-05-07 13:35 | 25.23761 | 51.63452 | 371 ft | 154 kts | 340° |
| 2026-05-07 13:35 | 25.24752 | 51.63019 | 192 ft | 153 kts | 340° |
| 2026-05-07 13:36 | 25.25758 | 51.62580 | 36 ft | 154 kts | 340° |
| 2026-05-07 13:36 | 25.26685 | 51.62180 | 15 ft | 127 kts | 337° |
| 2026-05-07 13:36 | 25.27368 | 51.61877 | 15 ft | 61 kts | 340° |
| 2026-05-07 13:36 | 25.27596 | 51.61770 | 15 ft | 13 kts | 316° |
| 2026-05-07 13:37 | 25.27600 | 51.61696 | 15 ft | 10 kts | 250° |
| 2026-05-07 13:37 | 25.27575 | 51.61625 | 15 ft | 9 kts | 250° |
| 2026-05-07 13:37 | 25.27553 | 51.61562 | 15 ft | 8 kts | 241° |
| 2026-05-07 13:37 | 25.27501 | 51.61518 | 15 ft | 11 kts | 200° |
| 2026-05-07 13:38 | 25.27420 | 51.61533 | 15 ft | 13 kts | 154° |
| 2026-05-07 13:38 | 25.27337 | 51.61580 | 15 ft | 12 kts | 145° |
| 2026-05-07 13:38 | 25.27252 | 51.61617 | 15 ft | 14 kts | 158° |
| 2026-05-07 13:38 | 25.27154 | 51.61659 | 15 ft | 15 kts | 163° |
| 2026-05-07 13:39 | 25.27048 | 51.61699 | 15 ft | 16 kts | 157° |
| 2026-05-07 13:39 | 25.26941 | 51.61754 | 15 ft | 17 kts | 153° |
| 2026-05-07 13:39 | 25.26826 | 51.61805 | 15 ft | 18 kts | 159° |
| 2026-05-07 13:39 | 25.26712 | 51.61854 | 15 ft | 16 kts | 158° |
| 2026-05-07 13:40 | 25.26612 | 51.61900 | 15 ft | 13 kts | 160° |
| 2026-05-07 13:40 | 25.26537 | 51.61889 | 15 ft | 8 kts | 217° |
| 2026-05-07 13:40 | 25.26492 | 51.61858 | 15 ft | 6 kts | 208° |
| 2026-05-07 13:40 | 25.26456 | 51.61836 | 15 ft | 6 kts | 211° |
| 2026-05-07 13:41 | 25.26418 | 51.61810 | 15 ft | 6 kts | 213° |
| 2026-05-07 13:41 | 25.26390 | 51.61790 | 15 ft | 2 kts | 214° |
| 2026-05-07 13:41 | 25.26383 | 51.61785 | 15 ft | 0 kts | 213° |
| 2026-05-07 13:41 | 25.26381 | 51.61784 | 15 ft | 0 kts | 214° |
| 2026-05-07 13:42 | 25.26380 | 51.61783 | 15 ft | 0 kts | 214° |